createdAt,value
2023-01-30T00:00:04.220Z,-0.82
2023-01-30T00:03:09.793Z,-0.83
2023-01-30T00:06:15.545Z,-0.84
2023-01-30T00:09:20.916Z,-0.85
2023-01-30T00:12:26.170Z,-0.86
2023-01-30T00:15:31.550Z,-0.87
2023-01-30T00:18:37.003Z,-0.86
2023-01-30T00:21:42.264Z,-0.88
2023-01-30T00:24:48.047Z,-0.90
2023-01-30T00:27:53.414Z,-0.92
2023-01-30T00:30:58.785Z,-0.93
2023-01-30T00:34:04.026Z,-0.94
2023-01-30T00:37:09.348Z,-0.95
2023-01-30T00:40:14.950Z,-0.96
2023-01-30T00:43:38.972Z,-0.97
2023-01-30T00:47:02.354Z,-0.97
2023-01-30T00:50:08.402Z,-0.98
2023-01-30T00:53:15.129Z,-0.99
2023-01-30T00:56:20.460Z,-0.99
2023-01-30T00:59:25.918Z,-0.99
2023-01-30T01:02:31.229Z,-0.98
2023-01-30T01:05:37.424Z,-0.97
2023-01-30T01:08:42.876Z,-0.97
2023-01-30T01:11:49.001Z,-1.00
2023-01-30T01:14:54.242Z,-1.00
2023-01-30T01:18:00.768Z,-1.00
2023-01-30T01:21:06.389Z,-0.98
2023-01-30T01:24:13.393Z,-0.97
2023-01-30T01:27:19.497Z,-0.96
2023-01-30T01:30:24.731Z,-0.93
2023-01-30T01:33:30.339Z,-0.92
2023-01-30T01:36:52.719Z,-0.92
2023-01-30T01:40:17.029Z,-0.90
2023-01-30T01:43:23.855Z,-0.90
2023-01-30T01:46:32.179Z,-0.90
2023-01-30T01:49:37.961Z,-0.89
2023-01-30T01:52:43.931Z,-0.88
2023-01-30T01:55:51.358Z,-0.85
2023-01-30T01:58:58.388Z,-0.83
2023-01-30T02:02:07.288Z,-0.82
2023-01-30T02:05:13.777Z,-0.80
2023-01-30T02:08:20.884Z,-0.80
2023-01-30T02:11:30.719Z,-0.84
2023-01-30T02:14:36.890Z,-0.85
2023-01-30T02:17:42.215Z,-0.87
2023-01-30T02:20:57.785Z,-0.89
2023-01-30T02:24:18.711Z,-0.90
2023-01-30T02:27:30.481Z,-0.90
2023-01-30T02:30:44.061Z,-0.89
2023-01-30T02:33:54.393Z,-0.91
2023-01-30T02:37:05.491Z,-0.93
2023-01-30T02:40:18.009Z,-0.94
2023-01-30T02:43:28.722Z,-0.94
2023-01-30T02:46:42.098Z,-0.95
2023-01-30T02:49:49.895Z,-0.94
2023-01-30T02:52:55.507Z,-0.96
2023-01-30T02:56:00.888Z,-0.98
2023-01-30T02:59:07.135Z,-1.00
2023-01-30T03:02:22.392Z,-1.02
2023-01-30T03:05:39.028Z,-1.02
2023-01-30T03:08:47.909Z,-1.00
2023-01-30T03:11:59.743Z,-1.00
2023-01-30T03:15:11.751Z,-1.01
2023-01-30T03:18:17.737Z,-1.00
2023-01-30T03:21:22.981Z,-1.01
2023-01-30T03:24:30.575Z,-1.01
2023-01-30T03:27:36.360Z,-1.03
2023-01-30T03:30:41.669Z,-1.03
2023-01-30T03:33:48.390Z,-1.03
2023-01-30T03:36:53.877Z,-1.04
2023-01-30T03:40:01.235Z,-1.04
2023-01-30T03:43:06.733Z,-1.03
2023-01-30T03:46:12.356Z,-1.04
2023-01-30T03:49:18.211Z,-1.03
2023-01-30T03:52:23.533Z,-1.03
2023-01-30T03:55:29.087Z,-1.06
2023-01-30T03:58:34.859Z,-1.08
2023-01-30T04:01:51.157Z,-1.10
2023-01-30T04:04:56.856Z,-1.12
2023-01-30T04:08:02.213Z,-1.13
2023-01-30T04:11:07.731Z,-1.14
2023-01-30T04:14:13.138Z,-1.18
2023-01-30T04:17:29.684Z,-1.22
2023-01-30T04:20:55.680Z,-1.27
2023-01-30T04:24:07.752Z,-1.29
2023-01-30T04:27:13.236Z,-1.32
2023-01-30T04:30:26.189Z,-1.34
2023-01-30T04:33:37.134Z,-1.36
2023-01-30T04:36:42.882Z,-1.36
2023-01-30T04:39:48.248Z,-1.37
2023-01-30T04:42:53.588Z,-1.37
2023-01-30T04:46:14.499Z,-1.38
2023-01-30T04:49:19.955Z,-1.38
2023-01-30T04:52:25.976Z,-1.38
2023-01-30T04:55:31.491Z,-1.38
2023-01-30T04:58:37.028Z,-1.37
2023-01-30T05:01:42.499Z,-1.37
2023-01-30T05:04:49.696Z,-1.36
2023-01-30T05:07:55.438Z,-1.34
2023-01-30T05:11:00.670Z,-1.33
2023-01-30T05:14:06.289Z,-1.33
2023-01-30T05:17:11.520Z,-1.32
2023-01-30T05:20:17.035Z,-1.34
2023-01-30T05:23:22.525Z,-1.37
2023-01-30T05:26:27.964Z,-1.38
2023-01-30T05:29:33.469Z,-1.40
2023-01-30T05:32:39.000Z,-1.41
2023-01-30T05:35:48.695Z,-1.40
2023-01-30T05:38:54.531Z,-1.39
2023-01-30T05:42:00.093Z,-1.39
2023-01-30T05:45:05.811Z,-1.37
2023-01-30T05:48:11.179Z,-1.36
2023-01-30T05:51:21.124Z,-1.35
2023-01-30T05:54:26.501Z,-1.34
2023-01-30T05:57:31.778Z,-1.34
2023-01-30T06:00:37.274Z,-1.35
2023-01-30T06:03:42.576Z,-1.34
2023-01-30T06:06:49.794Z,-1.34
2023-01-30T06:09:54.996Z,-1.33
2023-01-30T06:13:00.878Z,-1.31
2023-01-30T06:16:06.993Z,-1.28
2023-01-30T06:19:12.789Z,-1.26
2023-01-30T06:22:18.337Z,-1.24
2023-01-30T06:25:23.700Z,-1.22
2023-01-30T06:28:29.139Z,-1.19
2023-01-30T06:31:34.727Z,-1.17
2023-01-30T06:34:40.129Z,-1.15
2023-01-30T06:37:47.012Z,-1.12
2023-01-30T06:40:52.497Z,-1.10
2023-01-30T06:43:57.792Z,-1.05
2023-01-30T06:47:03.380Z,-1.00
2023-01-30T06:50:09.302Z,-0.98
2023-01-30T06:53:14.611Z,-0.97
2023-01-30T06:56:22.799Z,-0.97
2023-01-30T06:59:28.323Z,-0.98
2023-01-30T07:02:37.532Z,-0.98
2023-01-30T07:05:43.989Z,-0.98
2023-01-30T07:08:49.371Z,-0.97
2023-01-30T07:11:56.987Z,-0.97
2023-01-30T07:15:02.569Z,-0.97
2023-01-30T07:18:08.202Z,-0.96
2023-01-30T07:21:14.901Z,-0.94
2023-01-30T07:24:20.566Z,-0.91
2023-01-30T07:27:26.049Z,-0.89
2023-01-30T07:30:32.743Z,-0.86
2023-01-30T07:33:40.729Z,-0.84
2023-01-30T07:36:46.002Z,-0.83
2023-01-30T07:39:51.459Z,-0.78
2023-01-30T07:43:03.710Z,-0.76
2023-01-30T07:46:09.245Z,-0.74
2023-01-30T07:49:14.709Z,-0.70
2023-01-30T07:52:20.197Z,-0.65
2023-01-30T07:55:25.970Z,-0.60
2023-01-30T07:58:31.320Z,-0.55
2023-01-30T08:01:36.864Z,-0.51
2023-01-30T08:04:42.216Z,-0.47
2023-01-30T08:07:48.496Z,-0.42
2023-01-30T08:10:53.988Z,-0.34
2023-01-30T08:13:59.338Z,-0.26
2023-01-30T08:17:06.774Z,-0.20
2023-01-30T08:20:16.977Z,-0.18
2023-01-30T08:23:23.048Z,-0.15
2023-01-30T08:26:28.417Z,-0.10
2023-01-30T08:29:35.684Z,-0.08
2023-01-30T08:32:41.439Z,-0.04
2023-01-30T08:35:46.897Z,0.04
2023-01-30T08:38:52.386Z,0.09
2023-01-30T08:41:57.775Z,0.15
2023-01-30T08:45:03.378Z,0.19
2023-01-30T08:48:09.359Z,0.20
2023-01-30T08:51:14.844Z,0.19
2023-01-30T08:54:21.258Z,0.28
2023-01-30T08:57:26.658Z,0.39
2023-01-30T09:00:32.036Z,0.53
2023-01-30T09:03:37.394Z,0.57
2023-01-30T09:06:42.931Z,0.57
2023-01-30T09:09:48.721Z,0.59
2023-01-30T09:12:54.845Z,0.62
2023-01-30T09:16:00.623Z,0.63
2023-01-30T09:19:06.031Z,0.64
2023-01-30T09:22:11.450Z,0.60
2023-01-30T09:25:17.389Z,0.56
2023-01-30T09:28:24.247Z,0.55
2023-01-30T09:31:29.699Z,0.56
2023-01-30T09:34:35.338Z,0.57
2023-01-30T09:37:47.561Z,0.63
2023-01-30T09:41:00.217Z,0.71
2023-01-30T09:44:17.542Z,0.76
2023-01-30T09:47:27.767Z,0.79
2023-01-30T09:50:44.568Z,0.79
2023-01-30T09:54:05.253Z,0.77
2023-01-30T09:57:20.596Z,0.72
2023-01-30T10:00:31.701Z,0.76
2023-01-30T10:03:40.677Z,0.85
2023-01-30T10:06:57.981Z,0.93
2023-01-30T10:10:10.277Z,1.03
2023-01-30T10:13:26.218Z,1.10
2023-01-30T10:16:36.285Z,1.17
2023-01-30T10:19:51.439Z,1.22
2023-01-30T10:23:02.359Z,1.26
2023-01-30T10:26:10.734Z,1.35
2023-01-30T10:29:20.959Z,1.50
2023-01-30T10:32:29.107Z,1.54
2023-01-30T10:35:36.428Z,1.55
2023-01-30T10:38:45.830Z,1.51
2023-01-30T10:41:53.744Z,1.48
2023-01-30T10:45:01.796Z,1.43
2023-01-30T10:48:16.726Z,1.43
2023-01-30T10:51:27.920Z,1.57
2023-01-30T10:54:37.030Z,1.71
2023-01-30T10:57:51.425Z,1.81
2023-01-30T11:01:01.178Z,1.84
2023-01-30T11:04:15.369Z,2.00
2023-01-30T11:07:20.874Z,2.18
2023-01-30T11:10:31.119Z,2.32
2023-01-30T11:13:38.510Z,2.40
2023-01-30T11:16:48.164Z,2.39
2023-01-30T11:19:58.124Z,2.34
2023-01-30T11:23:07.824Z,2.38
2023-01-30T11:26:20.623Z,2.51
2023-01-30T11:29:28.623Z,2.67
2023-01-30T11:32:37.313Z,2.66
2023-01-30T11:35:54.403Z,2.64
2023-01-30T11:39:01.322Z,2.62
2023-01-30T11:42:12.083Z,2.73
2023-01-30T11:45:20.530Z,2.83
2023-01-30T11:48:33.008Z,2.94
2023-01-30T11:51:55.633Z,2.88
2023-01-30T11:55:05.669Z,2.82
2023-01-30T11:58:11.190Z,2.83
2023-01-30T12:01:17.951Z,3.06
2023-01-30T12:04:29.495Z,3.24
2023-01-30T12:07:37.724Z,3.10
2023-01-30T12:10:43.883Z,3.02
2023-01-30T12:13:50.253Z,2.96
2023-01-30T12:17:05.008Z,3.00
2023-01-30T12:20:15.240Z,3.22
2023-01-30T12:23:25.549Z,3.51
2023-01-30T12:26:38.048Z,3.83
2023-01-30T12:29:52.114Z,3.96
2023-01-30T12:36:14.983Z,4.15
2023-01-30T12:39:31.614Z,4.34
2023-01-30T12:42:48.794Z,4.21
2023-01-30T12:46:01.833Z,4.09
2023-01-30T12:49:16.276Z,3.89
2023-01-30T12:52:40.938Z,3.70
2023-01-30T12:55:49.143Z,3.87
2023-01-30T12:58:58.663Z,4.28
2023-01-30T13:02:14.277Z,4.50
2023-01-30T13:05:26.574Z,4.53
2023-01-30T13:08:43.812Z,4.85
2023-01-30T13:11:55.715Z,5.16
2023-01-30T13:15:05.016Z,5.26
2023-01-30T13:18:15.322Z,5.22
2023-01-30T13:21:24.579Z,4.87
2023-01-30T13:24:34.229Z,4.58
2023-01-30T13:27:43.852Z,4.46
2023-01-30T13:30:50.937Z,4.24
2023-01-30T13:34:02.648Z,4.08
2023-01-30T13:37:10.053Z,3.94
2023-01-30T13:40:20.660Z,3.89
2023-01-30T13:43:28.511Z,3.85
2023-01-30T13:46:37.235Z,3.84
2023-01-30T13:49:46.963Z,3.97
2023-01-30T13:52:56.523Z,3.90
2023-01-30T13:56:08.945Z,3.75
2023-01-30T13:59:24.960Z,3.53
2023-01-30T14:02:34.330Z,3.39
2023-01-30T14:06:02.006Z,3.24
2023-01-30T14:09:19.091Z,3.05
2023-01-30T14:12:25.937Z,2.86
2023-01-30T14:15:34.113Z,2.64
2023-01-30T14:18:39.705Z,2.44
2023-01-30T14:21:55.040Z,2.24
2023-01-30T14:25:18.415Z,2.09
2023-01-30T14:28:52.702Z,1.98
2023-01-30T14:31:58.106Z,1.88
2023-01-30T14:35:22.784Z,1.82
2023-01-30T14:38:29.674Z,1.79
2023-01-30T14:41:34.977Z,1.79
2023-01-30T14:45:03.769Z,1.82
2023-01-30T14:48:27.513Z,1.88
2023-01-30T14:51:36.061Z,1.87
2023-01-30T14:54:49.423Z,1.90
2023-01-30T14:57:59.525Z,1.91
2023-01-30T15:01:04.998Z,1.87
2023-01-30T15:04:16.671Z,1.82
2023-01-30T15:07:24.333Z,1.76
2023-01-30T15:10:42.141Z,1.72
2023-01-30T15:13:55.882Z,1.70
2023-01-30T15:17:19.694Z,1.67
2023-01-30T15:20:32.457Z,1.67
2023-01-30T15:23:55.362Z,1.69
2023-01-30T15:27:07.015Z,1.71
2023-01-30T15:30:23.757Z,1.72
2023-01-30T15:33:32.153Z,1.71
2023-01-30T15:36:40.759Z,1.67
2023-01-30T15:39:47.485Z,1.64
2023-01-30T15:43:03.459Z,1.61
2023-01-30T15:46:14.407Z,1.59
2023-01-30T15:49:36.317Z,1.56
2023-01-30T15:52:48.296Z,1.49
2023-01-30T15:55:54.758Z,1.44
2023-01-30T15:59:01.521Z,1.40
2023-01-30T16:02:14.695Z,1.39
2023-01-30T16:05:25.269Z,1.38
2023-01-30T16:08:31.579Z,1.37
2023-01-30T16:11:38.819Z,1.38
2023-01-30T16:14:46.167Z,1.39
2023-01-30T16:17:57.000Z,1.38
2023-01-30T16:21:06.342Z,1.37
2023-01-30T16:24:17.735Z,1.36
2023-01-30T16:27:30.388Z,1.36
2023-01-30T16:30:35.945Z,1.35
2023-01-30T16:33:41.576Z,1.34
2023-01-30T16:36:56.309Z,1.32
2023-01-30T16:40:06.139Z,1.28
2023-01-30T16:43:21.862Z,1.19
2023-01-30T16:46:48.553Z,1.10
2023-01-30T16:49:54.387Z,1.02
2023-01-30T16:53:02.352Z,0.95
2023-01-30T16:56:10.858Z,0.90
2023-01-30T16:59:24.356Z,0.85
2023-01-30T17:02:34.378Z,0.84
2023-01-30T17:05:40.533Z,0.83
2023-01-30T17:08:52.397Z,0.84
2023-01-30T17:11:57.775Z,0.86
2023-01-30T17:15:17.091Z,0.88
2023-01-30T17:18:22.856Z,0.91
2023-01-30T17:21:29.172Z,0.91
2023-01-30T17:24:36.339Z,0.91
2023-01-30T17:27:42.053Z,0.90
2023-01-30T17:30:51.508Z,0.89
2023-01-30T17:33:57.249Z,0.88
2023-01-30T17:37:02.789Z,0.88
2023-01-30T17:40:15.418Z,0.88
2023-01-30T17:43:20.847Z,0.88
2023-01-30T17:46:32.434Z,0.88
2023-01-30T17:49:38.042Z,0.90
2023-01-30T17:52:43.460Z,0.91
2023-01-30T17:55:49.990Z,0.91
2023-01-30T17:58:58.756Z,0.92
2023-01-30T18:02:04.324Z,0.93
2023-01-30T18:05:10.597Z,0.96
2023-01-30T18:08:20.224Z,1.00
2023-01-30T18:11:26.728Z,1.04
2023-01-30T18:14:35.660Z,1.09
2023-01-30T18:17:43.891Z,1.13
2023-01-30T18:20:52.097Z,1.19
2023-01-30T18:23:57.503Z,1.23
2023-01-30T18:27:02.936Z,1.27
2023-01-30T18:30:09.324Z,1.29
2023-01-30T18:33:16.272Z,1.31
2023-01-30T18:36:37.984Z,1.31
2023-01-30T18:39:56.860Z,1.31
2023-01-30T18:43:05.211Z,1.32
2023-01-30T18:46:13.235Z,1.31
2023-01-30T18:49:20.023Z,1.32
2023-01-30T18:52:25.595Z,1.37
2023-01-30T18:55:37.800Z,1.37
2023-01-30T18:58:52.485Z,1.36
2023-01-30T19:02:00.307Z,1.32
2023-01-30T19:05:06.063Z,1.27
2023-01-30T19:08:15.225Z,1.21
2023-01-30T19:11:39.475Z,1.17
2023-01-30T19:14:44.982Z,1.13
2023-01-30T19:17:52.862Z,1.12
2023-01-30T19:21:01.408Z,1.12
2023-01-30T19:24:08.297Z,1.14
2023-01-30T19:27:19.951Z,1.17
2023-01-30T19:30:25.770Z,1.19
2023-01-30T19:33:38.705Z,1.22
2023-01-30T19:36:46.383Z,1.26
2023-01-30T19:39:58.003Z,1.28
2023-01-30T19:43:10.924Z,1.31
2023-01-30T19:46:28.872Z,1.34
2023-01-30T19:49:48.544Z,1.35
2023-01-30T19:52:59.718Z,1.35
2023-01-30T19:56:08.444Z,1.35
2023-01-30T19:59:23.711Z,1.34
2023-01-30T20:02:30.220Z,1.33
2023-01-30T20:05:41.007Z,1.31
2023-01-30T20:08:51.630Z,1.30
2023-01-30T20:12:03.024Z,1.28
2023-01-30T20:15:11.555Z,1.27
2023-01-30T20:18:23.724Z,1.25
2023-01-30T20:21:41.919Z,1.27
2023-01-30T20:24:54.794Z,1.28
2023-01-30T20:28:16.239Z,1.29
2023-01-30T20:31:27.333Z,1.32
2023-01-30T20:34:38.107Z,1.36
2023-01-30T20:37:46.342Z,1.40
2023-01-30T20:41:05.496Z,1.44
2023-01-30T20:44:16.523Z,1.49
2023-01-30T20:47:27.438Z,1.53
2023-01-30T20:50:35.954Z,1.59
2023-01-30T20:53:47.201Z,1.62
2023-01-30T20:56:56.740Z,1.63
2023-01-30T21:00:04.414Z,1.63
2023-01-30T21:03:13.140Z,1.63
2023-01-30T21:06:42.531Z,1.63
2023-01-30T21:09:45.410Z,1.67
2023-01-30T21:12:52.996Z,1.70
2023-01-30T21:16:03.294Z,1.72
2023-01-30T21:19:11.151Z,1.73
2023-01-30T21:22:19.678Z,1.75
2023-01-30T21:25:25.540Z,1.76
2023-01-30T21:28:32.085Z,1.77
2023-01-30T21:31:39.220Z,1.77
2023-01-30T21:34:44.572Z,1.78
2023-01-30T21:38:08.233Z,1.76
2023-01-30T21:41:36.965Z,1.73
2023-01-30T21:44:46.618Z,1.71
2023-01-30T21:47:53.508Z,1.70
2023-01-30T21:50:58.959Z,1.67
2023-01-30T21:54:05.874Z,1.69
2023-01-30T21:57:11.395Z,1.71
2023-01-30T22:00:16.791Z,1.73
2023-01-30T22:03:26.731Z,1.73
2023-01-30T22:06:32.283Z,1.76
2023-01-30T22:09:37.977Z,1.77
2023-01-30T22:12:43.685Z,1.79
2023-01-30T22:15:49.050Z,1.81
2023-01-30T22:18:58.221Z,1.85
2023-01-30T22:22:03.956Z,1.90
2023-01-30T22:25:11.715Z,1.93
2023-01-30T22:28:18.479Z,1.97
2023-01-30T22:31:24.671Z,2.00
2023-01-30T22:34:32.776Z,2.04
2023-01-30T22:37:41.131Z,2.04
2023-01-30T22:40:46.581Z,2.07
2023-01-30T22:43:53.442Z,2.06
2023-01-30T22:46:59.002Z,2.08
2023-01-30T22:50:06.684Z,2.09
2023-01-30T22:53:11.932Z,2.12
2023-01-30T22:56:19.996Z,2.12
2023-01-30T22:59:25.295Z,2.12
2023-01-30T23:02:30.751Z,2.12
2023-01-30T23:05:39.204Z,2.12
2023-01-30T23:08:47.977Z,2.12
2023-01-30T23:12:08.386Z,2.15
2023-01-30T23:15:16.009Z,2.15
2023-01-30T23:18:41.703Z,2.15
2023-01-30T23:21:49.946Z,2.16
2023-01-30T23:24:55.348Z,2.17
2023-01-30T23:28:01.271Z,2.18
2023-01-30T23:31:11.328Z,2.19
2023-01-30T23:34:17.402Z,2.17
2023-01-30T23:37:44.846Z,2.19
2023-01-30T23:40:51.181Z,2.19
2023-01-30T23:43:57.171Z,2.17
2023-01-30T23:47:05.258Z,2.17
2023-01-30T23:50:12.606Z,2.19
2023-01-30T23:53:17.875Z,2.17
2023-01-30T23:56:24.061Z,2.16
2023-01-30T23:59:29.643Z,2.09
